createdAt,value
2017-12-17T00:00:31.638Z,87.30
2017-12-17T00:02:59.068Z,87.30
2017-12-17T00:05:26.488Z,87.20
2017-12-17T00:07:53.908Z,87.00
2017-12-17T00:10:21.343Z,86.70
2017-12-17T00:12:48.776Z,86.60
2017-12-17T00:15:16.975Z,86.60
2017-12-17T00:17:45.312Z,86.60
2017-12-17T00:20:12.770Z,86.40
2017-12-17T00:22:40.171Z,86.40
2017-12-17T00:25:08.351Z,86.30
2017-12-17T00:27:35.932Z,86.10
2017-12-17T00:30:03.340Z,86.30
2017-12-17T00:32:30.810Z,86.30
2017-12-17T00:34:58.203Z,86.40
2017-12-17T00:37:26.459Z,86.00
2017-12-17T00:39:53.864Z,86.00
2017-12-17T00:42:21.284Z,86.00
2017-12-17T00:44:48.702Z,85.70
2017-12-17T00:47:16.116Z,85.50
2017-12-17T00:49:44.304Z,85.60
2017-12-17T00:52:11.734Z,85.60
2017-12-17T00:54:39.908Z,85.20
2017-12-17T00:57:07.364Z,85.20
2017-12-17T00:59:34.767Z,85.00
2017-12-17T01:02:02.965Z,84.90
2017-12-17T01:04:30.388Z,84.90
2017-12-17T01:06:57.803Z,85.00
2017-12-17T01:09:25.991Z,84.90
2017-12-17T01:11:53.408Z,84.90
2017-12-17T01:14:21.596Z,84.80
2017-12-17T01:16:49.019Z,84.70
2017-12-17T01:19:16.441Z,85.20
2017-12-17T01:21:43.863Z,85.20
2017-12-17T01:24:11.288Z,85.20
2017-12-17T01:26:38.725Z,85.20
2017-12-17T01:29:06.167Z,85.50
2017-12-17T01:31:33.595Z,85.40
2017-12-17T01:34:01.004Z,85.50
2017-12-17T01:36:29.199Z,85.90
2017-12-17T01:38:56.625Z,85.80
2017-12-17T01:41:24.040Z,85.90
2017-12-17T01:43:52.256Z,86.40
2017-12-17T01:46:19.675Z,86.40
2017-12-17T01:48:47.095Z,86.50
2017-12-17T01:51:14.518Z,86.50
2017-12-17T01:53:42.704Z,86.90
2017-12-17T01:56:10.132Z,86.80
2017-12-17T01:58:38.328Z,86.70
2017-12-17T02:01:05.743Z,86.70
2017-12-17T02:03:33.172Z,86.80
2017-12-17T02:06:01.352Z,86.80
2017-12-17T02:08:28.777Z,86.80
2017-12-17T02:10:56.959Z,86.50
2017-12-17T02:13:24.383Z,86.50
2017-12-17T02:15:51.808Z,86.20
2017-12-17T02:18:20.008Z,85.80
2017-12-17T02:20:47.426Z,85.70
2017-12-17T02:23:14.848Z,86.10
2017-12-17T02:25:43.036Z,86.00
2017-12-17T02:28:10.467Z,86.00
2017-12-17T02:30:37.881Z,86.10
2017-12-17T02:33:05.295Z,86.30
2017-12-17T02:35:32.719Z,86.40
2017-12-17T02:38:00.180Z,86.40
2017-12-17T02:40:27.600Z,86.30
2017-12-17T02:42:55.025Z,86.30
2017-12-17T02:45:22.440Z,86.50
2017-12-17T02:47:50.635Z,86.10
2017-12-17T02:50:18.056Z,86.10
2017-12-17T02:52:45.478Z,85.90
2017-12-17T02:55:13.664Z,85.50
2017-12-17T02:57:41.100Z,85.50
2017-12-17T03:00:08.524Z,85.60
2017-12-17T03:02:36.722Z,85.00
2017-12-17T03:05:04.144Z,84.80
2017-12-17T03:07:31.560Z,84.90
2017-12-17T03:09:59.739Z,85.20
2017-12-17T03:12:27.155Z,84.80
2017-12-17T03:14:55.350Z,84.80
2017-12-17T03:17:22.776Z,84.70
2017-12-17T03:19:50.956Z,84.90
2017-12-17T03:22:18.372Z,84.80
2017-12-17T03:24:45.791Z,85.00
2017-12-17T03:27:13.211Z,84.80
2017-12-17T03:29:40.640Z,84.60
2017-12-17T03:32:08.060Z,84.90
2017-12-17T03:34:35.499Z,85.20
2017-12-17T03:37:02.920Z,84.90
2017-12-17T03:39:31.107Z,84.20
2017-12-17T03:41:58.530Z,84.20
2017-12-17T03:44:25.949Z,84.10
2017-12-17T03:46:54.132Z,83.70
2017-12-17T03:49:21.552Z,83.70
2017-12-17T03:51:49.861Z,83.10
2017-12-17T03:54:17.307Z,83.00
2017-12-17T03:56:44.741Z,83.10
2017-12-17T03:59:12.157Z,83.10
2017-12-17T04:01:39.572Z,82.80
2017-12-17T04:04:07.749Z,82.80
2017-12-17T04:06:35.180Z,82.70
2017-12-17T04:09:03.361Z,83.70
2017-12-17T04:11:30.785Z,82.90
2017-12-17T04:13:58.976Z,83.00
2017-12-17T04:16:26.405Z,83.00
2017-12-17T04:18:53.816Z,82.70
2017-12-17T04:21:22.025Z,82.70
2017-12-17T04:23:49.432Z,82.70
2017-12-17T04:26:16.889Z,83.50
2017-12-17T04:28:45.054Z,83.00
2017-12-17T04:31:12.472Z,83.00
2017-12-17T04:33:40.656Z,82.90
2017-12-17T04:36:08.098Z,82.80
2017-12-17T04:38:35.507Z,82.90
2017-12-17T04:41:03.691Z,83.10
2017-12-17T04:43:31.108Z,83.10
2017-12-17T04:45:59.308Z,83.20
2017-12-17T04:48:26.740Z,83.10
2017-12-17T04:50:54.183Z,83.30
2017-12-17T04:53:21.603Z,83.40
2017-12-17T04:55:49.028Z,83.70
2017-12-17T04:58:17.219Z,83.60
2017-12-17T05:00:44.665Z,83.60
2017-12-17T05:03:12.080Z,83.70
2017-12-17T05:05:39.499Z,83.50
2017-12-17T05:08:07.689Z,84.60
2017-12-17T05:10:35.117Z,83.80
2017-12-17T05:13:03.349Z,83.70
2017-12-17T05:15:30.740Z,83.70
2017-12-17T05:17:58.171Z,84.00
2017-12-17T05:20:25.604Z,83.80
2017-12-17T05:22:53.798Z,83.60
2017-12-17T05:25:21.212Z,83.50
2017-12-17T05:27:48.661Z,84.00
2017-12-17T05:30:16.080Z,84.30
2017-12-17T05:32:44.273Z,84.50
2017-12-17T05:35:11.699Z,84.40
2017-12-17T05:37:39.129Z,84.20
2017-12-17T05:40:06.549Z,84.30
2017-12-17T05:42:34.752Z,83.60
2017-12-17T05:45:02.169Z,83.10
2017-12-17T05:47:30.360Z,83.30
2017-12-17T05:49:57.784Z,83.20
2017-12-17T05:52:25.208Z,83.00
2017-12-17T05:54:53.397Z,83.30
2017-12-17T05:57:20.820Z,83.20
2017-12-17T05:59:48.241Z,83.30
2017-12-17T06:02:16.471Z,82.70
2017-12-17T06:04:43.892Z,82.70
2017-12-17T06:07:11.312Z,82.70
2017-12-17T06:09:38.731Z,82.60
2017-12-17T06:12:06.929Z,82.20
2017-12-17T06:14:34.359Z,82.10
2017-12-17T06:17:01.776Z,82.20
2017-12-17T06:19:29.955Z,82.30
2017-12-17T06:21:57.391Z,82.20
2017-12-17T06:24:24.817Z,82.20
2017-12-17T06:26:52.991Z,82.10
2017-12-17T06:29:20.416Z,82.10
2017-12-17T06:31:48.603Z,81.90
2017-12-17T06:34:16.027Z,81.90
2017-12-17T06:36:43.448Z,81.90
2017-12-17T06:39:11.643Z,81.80
2017-12-17T06:41:39.071Z,81.70
2017-12-17T06:44:06.534Z,81.60
2017-12-17T06:46:33.939Z,81.30
2017-12-17T06:49:02.113Z,81.10
2017-12-17T06:51:29.532Z,81.00
2017-12-17T06:53:57.725Z,81.00
2017-12-17T06:56:25.156Z,80.90
2017-12-17T06:58:52.572Z,80.40
2017-12-17T07:01:20.763Z,81.10
2017-12-17T07:03:48.195Z,80.90
2017-12-17T07:06:15.612Z,81.10
2017-12-17T07:08:43.796Z,81.70
2017-12-17T07:11:11.212Z,81.60
2017-12-17T07:13:39.404Z,82.70
2017-12-17T07:16:06.832Z,82.60
2017-12-17T07:18:34.272Z,83.00
2017-12-17T07:21:01.700Z,83.70
2017-12-17T07:23:29.891Z,85.30
2017-12-17T07:25:57.312Z,85.20
2017-12-17T07:28:24.741Z,84.80
2017-12-17T07:30:52.924Z,83.70
2017-12-17T07:33:20.349Z,84.30
2017-12-17T07:35:48.535Z,82.40
2017-12-17T07:38:15.948Z,82.20
2017-12-17T07:40:44.137Z,81.00
2017-12-17T07:43:11.552Z,81.00
2017-12-17T07:45:39.728Z,81.10
2017-12-17T07:48:07.156Z,81.00
2017-12-17T07:50:34.572Z,81.50
2017-12-17T07:53:02.774Z,82.00
2017-12-17T07:55:30.184Z,81.20
2017-12-17T07:57:58.372Z,80.50
2017-12-17T08:00:25.788Z,80.40
2017-12-17T08:02:53.972Z,80.50
2017-12-17T08:05:21.392Z,80.30
2017-12-17T08:07:49.572Z,80.10
2017-12-17T08:10:16.997Z,80.00
2017-12-17T08:12:44.411Z,80.00
2017-12-17T08:15:11.830Z,80.60
2017-12-17T08:17:39.248Z,80.60
2017-12-17T08:20:06.707Z,80.50
2017-12-17T08:22:34.105Z,81.00
2017-12-17T08:25:01.540Z,81.00
2017-12-17T08:27:29.726Z,79.90
2017-12-17T08:29:57.148Z,78.90
2017-12-17T08:32:24.579Z,78.70
2017-12-17T08:34:52.753Z,78.40
2017-12-17T08:37:20.177Z,78.40
2017-12-17T08:39:48.352Z,76.60
2017-12-17T08:42:15.768Z,76.50
2017-12-17T08:44:43.952Z,74.90
2017-12-17T08:47:11.368Z,74.80
2017-12-17T08:49:39.544Z,75.80
2017-12-17T08:52:06.967Z,75.70
2017-12-17T08:54:35.143Z,75.80
2017-12-17T08:57:02.555Z,75.70
2017-12-17T08:59:29.983Z,75.50
2017-12-17T09:01:57.401Z,74.30
2017-12-17T09:04:24.807Z,74.30
2017-12-17T09:06:52.228Z,74.30
2017-12-17T09:09:19.646Z,74.10
2017-12-17T09:11:47.070Z,74.70
2017-12-17T09:14:14.512Z,72.60
2017-12-17T09:16:41.932Z,72.80
2017-12-17T09:19:09.344Z,72.20
2017-12-17T09:21:37.560Z,72.10
2017-12-17T09:24:04.972Z,72.00
2017-12-17T09:26:32.392Z,71.00
2017-12-17T09:29:00.576Z,70.00
2017-12-17T09:31:27.996Z,69.90
2017-12-17T09:33:56.176Z,69.70
2017-12-17T09:36:24.367Z,70.10
2017-12-17T09:38:51.791Z,70.00
2017-12-17T09:41:19.224Z,69.90
2017-12-17T09:43:46.642Z,69.70
2017-12-17T09:46:14.832Z,69.00
2017-12-17T09:48:42.240Z,68.80
2017-12-17T09:51:09.652Z,68.40
2017-12-17T09:53:37.068Z,68.80
2017-12-17T09:56:04.476Z,68.70
2017-12-17T09:58:32.660Z,69.80
2017-12-17T10:01:00.084Z,69.80
2017-12-17T10:03:27.508Z,68.70
2017-12-17T10:05:55.713Z,69.90
2017-12-17T10:08:23.127Z,69.80
2017-12-17T10:10:50.544Z,69.40
2017-12-17T10:13:17.972Z,68.60
2017-12-17T10:15:45.399Z,69.90
2017-12-17T10:18:12.839Z,69.90
2017-12-17T10:20:40.247Z,68.60
2017-12-17T10:23:07.671Z,68.50
2017-12-17T10:25:35.856Z,68.30
2017-12-17T10:28:03.292Z,68.30
2017-12-17T10:30:30.708Z,68.60
2017-12-17T10:32:58.896Z,68.20
2017-12-17T10:35:26.307Z,68.10
2017-12-17T10:37:54.499Z,68.10
2017-12-17T10:40:21.916Z,68.10
2017-12-17T10:42:49.332Z,68.00
2017-12-17T10:45:16.743Z,68.00
2017-12-17T10:47:44.168Z,66.50
2017-12-17T10:50:11.572Z,65.80
2017-12-17T10:52:39.780Z,66.20
2017-12-17T10:55:07.199Z,66.20
2017-12-17T10:57:34.616Z,67.00
2017-12-17T11:00:02.806Z,66.60
2017-12-17T11:02:30.213Z,66.60
2017-12-17T11:04:59.190Z,66.10
2017-12-17T11:07:27.363Z,66.00
2017-12-17T11:09:54.787Z,66.00
2017-12-17T11:12:22.969Z,65.90
2017-12-17T11:14:50.395Z,65.80
2017-12-17T11:17:17.830Z,66.90
2017-12-17T11:19:45.995Z,65.50
2017-12-17T11:22:13.417Z,65.40
2017-12-17T11:24:41.600Z,64.50
2017-12-17T11:27:09.007Z,64.50
2017-12-17T11:29:36.447Z,64.80
2017-12-17T11:32:04.631Z,63.30
2017-12-17T11:34:32.812Z,63.60
2017-12-17T11:37:00.226Z,63.50
2017-12-17T11:39:28.440Z,63.90
2017-12-17T11:41:55.876Z,63.90
2017-12-17T11:44:23.322Z,64.10
2017-12-17T11:46:50.728Z,64.60
2017-12-17T11:49:18.160Z,64.70
2017-12-17T11:51:46.339Z,64.10
2017-12-17T11:54:13.752Z,64.00
2017-12-17T11:56:41.933Z,63.50
2017-12-17T11:59:09.393Z,63.40
2017-12-17T12:01:36.849Z,63.70
2017-12-17T12:04:04.264Z,63.80
2017-12-17T12:06:31.682Z,63.70
2017-12-17T12:08:59.885Z,64.20
2017-12-17T12:11:27.299Z,64.20
2017-12-17T12:13:54.754Z,64.10
2017-12-17T12:16:22.156Z,64.40
2017-12-17T12:18:50.386Z,64.10
2017-12-17T12:21:17.784Z,64.00
2017-12-17T12:23:45.235Z,64.30
2017-12-17T12:26:12.641Z,65.20
2017-12-17T12:28:40.833Z,63.60
2017-12-17T12:31:08.339Z,63.60
2017-12-17T12:33:35.778Z,64.10
2017-12-17T12:36:03.222Z,64.30
2017-12-17T12:38:30.627Z,64.00
2017-12-17T12:40:58.052Z,64.40
2017-12-17T12:43:25.460Z,64.50
2017-12-17T12:45:52.874Z,65.10
2017-12-17T12:48:21.063Z,66.10
2017-12-17T12:50:49.237Z,66.50
2017-12-17T12:53:16.699Z,66.40
2017-12-17T12:55:44.105Z,65.90
2017-12-17T12:58:11.563Z,66.10
2017-12-17T13:00:39.002Z,66.40
2017-12-17T13:03:06.413Z,66.60
2017-12-17T13:05:33.832Z,66.70
2017-12-17T13:08:01.292Z,67.00
2017-12-17T13:10:28.704Z,67.30
2017-12-17T13:12:56.116Z,67.20
2017-12-17T13:15:23.535Z,67.20
2017-12-17T13:17:50.982Z,67.40
2017-12-17T13:20:19.198Z,68.10
2017-12-17T13:22:46.604Z,68.00
2017-12-17T13:25:14.022Z,67.70
2017-12-17T13:27:41.481Z,67.80
2017-12-17T13:30:08.884Z,68.20
2017-12-17T13:32:37.118Z,69.20
2017-12-17T13:35:04.573Z,69.20
2017-12-17T13:37:31.971Z,69.30
2017-12-17T13:39:59.381Z,69.60
2017-12-17T13:42:27.563Z,69.60
2017-12-17T13:44:55.077Z,69.60
2017-12-17T13:47:22.484Z,70.30
2017-12-17T13:49:49.906Z,70.90
2017-12-17T13:52:17.320Z,71.00
2017-12-17T13:54:44.785Z,71.10
2017-12-17T13:57:12.197Z,70.60
2017-12-17T13:59:40.376Z,69.50
2017-12-17T14:02:07.836Z,69.50
2017-12-17T14:04:35.260Z,69.50
2017-12-17T14:07:02.688Z,69.60
2017-12-17T14:09:30.100Z,69.30
2017-12-17T14:11:58.299Z,70.30
2017-12-17T14:14:25.798Z,70.20
2017-12-17T14:16:53.204Z,70.50
2017-12-17T14:19:20.619Z,70.30
2017-12-17T14:21:48.035Z,70.20
2017-12-17T14:24:16.216Z,70.70
2017-12-17T14:26:43.627Z,70.70
2017-12-17T14:29:11.807Z,69.90
2017-12-17T14:31:39.245Z,69.80
2017-12-17T14:34:07.421Z,69.40
2017-12-17T14:36:34.832Z,69.30
2017-12-17T14:39:04.852Z,69.30
2017-12-17T14:41:32.276Z,69.30
2017-12-17T14:44:00.461Z,70.00
2017-12-17T14:46:27.884Z,69.90
2017-12-17T14:48:55.346Z,69.60
2017-12-17T14:51:22.752Z,69.70
2017-12-17T14:53:50.961Z,70.00
2017-12-17T14:56:18.380Z,70.00
2017-12-17T14:58:45.838Z,70.20
2017-12-17T15:01:13.241Z,70.30
2017-12-17T15:03:41.423Z,70.60
2017-12-17T15:06:08.844Z,70.70
2017-12-17T15:08:37.066Z,71.00
2017-12-17T15:11:04.468Z,70.90
2017-12-17T15:13:31.935Z,70.60
2017-12-17T15:15:59.329Z,71.00
2017-12-17T15:18:27.516Z,71.10
2017-12-17T15:20:54.970Z,71.00
2017-12-17T15:23:22.412Z,71.20
2017-12-17T15:25:49.840Z,71.30
2017-12-17T15:28:17.310Z,71.50
2017-12-17T15:30:44.726Z,71.80
2017-12-17T15:33:12.173Z,72.00
2017-12-17T15:35:39.584Z,72.10
2017-12-17T15:38:07.765Z,71.50
2017-12-17T15:40:35.200Z,71.40
2017-12-17T15:43:02.670Z,71.90
2017-12-17T15:45:30.123Z,71.90
2017-12-17T15:47:57.577Z,72.00
2017-12-17T15:50:25.030Z,72.20
2017-12-17T15:52:52.441Z,72.30
2017-12-17T15:55:19.860Z,72.40
2017-12-17T15:57:47.280Z,72.90
2017-12-17T16:00:14.699Z,73.10
2017-12-17T16:02:42.936Z,73.20
2017-12-17T16:05:10.391Z,73.10
2017-12-17T16:07:37.800Z,73.10
2017-12-17T16:10:05.270Z,73.20
2017-12-17T16:12:32.724Z,73.10
2017-12-17T16:15:00.120Z,73.20
2017-12-17T16:17:27.623Z,73.20
2017-12-17T16:19:55.834Z,73.60
2017-12-17T16:22:23.290Z,73.10
2017-12-17T16:24:50.709Z,73.60
2017-12-17T16:27:18.138Z,73.50
2017-12-17T16:29:45.607Z,73.30
2017-12-17T16:32:13.074Z,73.70
2017-12-17T16:34:41.470Z,72.90
2017-12-17T16:37:09.659Z,73.20
2017-12-17T16:39:37.080Z,73.10
2017-12-17T16:42:04.542Z,73.20
2017-12-17T16:44:32.092Z,73.50
2017-12-17T16:46:59.538Z,73.90
2017-12-17T16:49:26.990Z,73.90
2017-12-17T16:51:54.492Z,74.20
2017-12-17T16:54:21.898Z,74.60
2017-12-17T16:56:49.367Z,74.90
2017-12-17T16:59:17.531Z,76.20
2017-12-17T17:01:44.960Z,76.20
2017-12-17T17:04:12.510Z,76.40
2017-12-17T17:06:40.730Z,76.70
2017-12-17T17:09:08.183Z,76.70
2017-12-17T17:11:35.637Z,76.60
2017-12-17T17:14:03.860Z,77.30
2017-12-17T17:16:31.319Z,77.20
2017-12-17T17:18:58.788Z,77.20
2017-12-17T17:21:27.014Z,77.40
2017-12-17T17:23:54.599Z,77.30
2017-12-17T17:26:22.772Z,77.30
2017-12-17T17:28:50.286Z,77.30
2017-12-17T17:31:17.700Z,77.40
2017-12-17T17:33:45.172Z,77.60
2017-12-17T17:36:12.580Z,77.30
2017-12-17T17:38:40.047Z,76.70
2017-12-17T17:41:07.511Z,77.30
2017-12-17T17:43:35.768Z,77.70
2017-12-17T17:46:04.000Z,77.90
2017-12-17T17:48:31.463Z,77.90
2017-12-17T17:50:59.679Z,77.60
2017-12-17T17:53:27.139Z,77.50
2017-12-17T17:55:54.603Z,77.80
2017-12-17T17:58:22.051Z,77.90
2017-12-17T18:00:50.267Z,78.00
2017-12-17T18:03:17.735Z,78.00
2017-12-17T18:05:45.187Z,78.50
2017-12-17T18:08:12.642Z,78.30
2017-12-17T18:10:40.881Z,78.60
2017-12-17T18:13:08.344Z,78.60
2017-12-17T18:15:36.512Z,78.80
2017-12-17T18:18:03.998Z,78.80
2017-12-17T18:20:31.455Z,79.00
2017-12-17T18:22:58.915Z,79.30
2017-12-17T18:25:26.378Z,79.40
2017-12-17T18:27:54.653Z,79.90
2017-12-17T18:30:22.012Z,79.80
2017-12-17T18:32:49.519Z,79.80
2017-12-17T18:35:17.746Z,79.50
2017-12-17T18:37:45.208Z,79.50
2017-12-17T18:40:12.635Z,80.00
2017-12-17T18:42:40.070Z,79.30
2017-12-17T18:45:07.516Z,79.30
2017-12-17T18:47:35.708Z,78.90
2017-12-17T18:50:03.201Z,78.80
2017-12-17T18:52:30.655Z,78.60
2017-12-17T18:54:58.069Z,77.80
2017-12-17T18:57:25.534Z,77.60
2017-12-17T18:59:52.996Z,77.50
2017-12-17T19:02:20.464Z,77.20
2017-12-17T19:04:48.701Z,77.50
2017-12-17T19:07:16.167Z,77.50
2017-12-17T19:09:44.775Z,77.30
2017-12-17T19:12:12.231Z,77.30
2017-12-17T19:14:39.651Z,77.00
2017-12-17T19:17:07.114Z,76.40
2017-12-17T19:19:34.581Z,76.00
2017-12-17T19:22:02.027Z,76.00
2017-12-17T19:24:30.193Z,76.40
2017-12-17T19:26:57.668Z,76.30
2017-12-17T19:29:25.131Z,76.10
2017-12-17T19:31:52.587Z,76.30
2017-12-17T19:34:20.043Z,76.70
2017-12-17T19:36:47.510Z,75.90
2017-12-17T19:39:15.748Z,75.60
2017-12-17T19:41:43.220Z,75.60
2017-12-17T19:44:11.439Z,75.70
2017-12-17T19:46:38.887Z,75.60
2017-12-17T19:49:06.346Z,75.10
2017-12-17T19:51:34.603Z,74.50
2017-12-17T19:54:02.019Z,74.40
2017-12-17T19:56:29.482Z,73.40
2017-12-17T19:58:57.708Z,74.00
2017-12-17T20:01:25.964Z,74.00
2017-12-17T20:03:53.448Z,73.50
2017-12-17T20:06:20.912Z,74.10
2017-12-17T20:08:48.367Z,74.10
2017-12-17T20:11:15.823Z,74.50
2017-12-17T20:13:43.271Z,74.20
2017-12-17T20:16:10.680Z,74.90
2017-12-17T20:18:38.178Z,74.80
2017-12-17T20:21:05.644Z,74.20
2017-12-17T20:23:33.103Z,74.80
2017-12-17T20:26:00.567Z,74.70
2017-12-17T20:28:28.015Z,74.80
2017-12-17T20:30:55.471Z,75.10
2017-12-17T20:33:22.923Z,75.20
2017-12-17T20:35:50.395Z,75.20
2017-12-17T20:38:18.631Z,75.30
2017-12-17T20:40:46.084Z,75.20
2017-12-17T20:43:13.543Z,75.20
2017-12-17T20:45:41.802Z,75.00
2017-12-17T20:48:09.244Z,74.80
2017-12-17T20:50:37.470Z,75.20
2017-12-17T20:53:04.931Z,75.20
2017-12-17T20:55:32.383Z,75.40
2017-12-17T20:58:00.614Z,75.60
2017-12-17T21:00:28.063Z,75.50
2017-12-17T21:02:55.527Z,74.70
2017-12-17T21:05:23.756Z,74.80
2017-12-17T21:07:51.212Z,74.80
2017-12-17T21:10:19.491Z,75.00
2017-12-17T21:12:47.716Z,73.20
2017-12-17T21:15:15.183Z,73.10
2017-12-17T21:17:42.627Z,73.20
2017-12-17T21:20:10.079Z,72.80
2017-12-17T21:22:38.299Z,73.20
2017-12-17T21:25:05.767Z,73.10
2017-12-17T21:27:33.219Z,73.10
2017-12-17T21:30:00.676Z,73.20
2017-12-17T21:32:28.903Z,73.30
2017-12-17T21:34:56.355Z,73.20
2017-12-17T21:37:23.847Z,73.40
2017-12-17T21:39:51.313Z,73.40
2017-12-17T21:42:18.793Z,74.00
2017-12-17T21:44:47.027Z,73.90
2017-12-17T21:47:14.476Z,73.80
2017-12-17T21:49:41.956Z,74.00
2017-12-17T21:52:10.180Z,73.30
2017-12-17T21:54:37.707Z,73.90
2017-12-17T21:57:05.080Z,72.00
2017-12-17T21:59:33.301Z,72.80
2017-12-17T22:02:00.743Z,72.80
2017-12-17T22:04:28.195Z,72.40
2017-12-17T22:06:55.655Z,71.80
2017-12-17T22:09:23.160Z,70.10
2017-12-17T22:11:50.590Z,69.90
2017-12-17T22:14:18.043Z,66.90
2017-12-17T22:16:45.500Z,66.40
2017-12-17T22:19:12.975Z,66.50
2017-12-17T22:21:40.525Z,66.60
2017-12-17T22:24:08.744Z,67.00
2017-12-17T22:26:36.198Z,66.20
2017-12-17T22:29:04.423Z,65.80
2017-12-17T22:31:31.875Z,66.50
2017-12-17T22:33:59.340Z,65.10
2017-12-17T22:36:26.819Z,67.10
2017-12-17T22:38:55.044Z,66.40
2017-12-17T22:41:22.481Z,66.30
2017-12-17T22:43:49.946Z,66.30
2017-12-17T22:46:17.402Z,66.30
2017-12-17T22:48:45.637Z,65.50
2017-12-17T22:51:13.095Z,65.30
2017-12-17T22:53:41.318Z,65.70
2017-12-17T22:56:08.782Z,65.70
2017-12-17T22:58:36.239Z,65.70
2017-12-17T23:01:03.682Z,65.70
2017-12-17T23:03:31.902Z,67.30
2017-12-17T23:05:59.362Z,67.20
2017-12-17T23:08:26.815Z,67.90
2017-12-17T23:10:54.264Z,68.20
2017-12-17T23:13:22.485Z,67.90
2017-12-17T23:15:49.884Z,67.90
2017-12-17T23:18:17.355Z,68.70
2017-12-17T23:20:44.768Z,67.90
2017-12-17T23:23:12.193Z,68.20
2017-12-17T23:25:40.376Z,68.10
2017-12-17T23:28:07.795Z,68.10
2017-12-17T23:30:38.103Z,68.60
2017-12-17T23:33:06.298Z,68.20
2017-12-17T23:35:33.715Z,68.10
2017-12-17T23:38:01.143Z,68.30
2017-12-17T23:40:29.327Z,68.40
2017-12-17T23:42:56.764Z,68.40
2017-12-17T23:45:24.179Z,68.60
2017-12-17T23:47:52.384Z,69.70
2017-12-17T23:50:19.816Z,69.70
2017-12-17T23:52:47.248Z,70.00
2017-12-17T23:55:14.668Z,69.90
2017-12-17T23:57:42.849Z,69.60
